createdAt,value
2022-09-23T00:02:16.826Z,12.49
2022-09-23T00:04:45.107Z,12.61
2022-09-23T00:07:13.361Z,13.00
2022-09-23T00:09:41.556Z,13.23
2022-09-23T00:12:10.380Z,13.08
2022-09-23T00:14:40.166Z,13.31
2022-09-23T00:17:08.534Z,13.27
2022-09-23T00:19:40.360Z,13.33
2022-09-23T00:22:08.980Z,13.07
2022-09-23T00:24:37.185Z,12.71
2022-09-23T00:27:05.868Z,12.55
2022-09-23T00:29:34.292Z,12.08
2022-09-23T00:32:02.766Z,12.07
2022-09-23T00:34:31.335Z,11.38
2022-09-23T00:37:00.982Z,11.03
2022-09-23T00:39:29.168Z,10.79
2022-09-23T00:41:57.421Z,10.82
2022-09-23T00:44:45.451Z,11.71
2022-09-23T00:47:19.181Z,12.26
2022-09-23T00:49:51.029Z,12.64
2022-09-23T00:52:24.547Z,12.69
2022-09-23T00:54:56.468Z,12.83
2022-09-23T00:57:26.636Z,12.81
2022-09-23T00:59:55.139Z,12.84
2022-09-23T01:02:23.898Z,12.87
2022-09-23T01:04:52.862Z,12.79
2022-09-23T01:07:22.497Z,12.84
2022-09-23T01:09:51.143Z,12.74
2022-09-23T01:12:37.685Z,12.70
2022-09-23T01:15:12.608Z,12.82
2022-09-23T01:17:48.762Z,12.23
2022-09-23T01:20:41.987Z,11.82
2022-09-23T01:23:39.165Z,11.90
2022-09-23T01:26:22.515Z,12.31
2022-09-23T01:29:08.566Z,12.60
2022-09-23T01:31:44.159Z,12.55
2022-09-23T01:34:17.578Z,12.01
2022-09-23T01:36:50.801Z,11.63
2022-09-23T01:39:28.156Z,11.52
2022-09-23T01:42:03.504Z,11.67
2022-09-23T01:44:39.288Z,11.64
2022-09-23T01:47:15.282Z,11.88
2022-09-23T01:49:50.725Z,12.00
2022-09-23T01:52:26.989Z,12.16
2022-09-23T01:55:02.540Z,11.07
2022-09-23T01:57:34.848Z,11.89
2022-09-23T02:00:07.962Z,11.59
2022-09-23T02:02:42.186Z,11.57
2022-09-23T02:05:17.764Z,11.79
2022-09-23T02:07:53.925Z,11.84
2022-09-23T02:10:26.674Z,11.90
2022-09-23T02:13:01.180Z,11.15
2022-09-23T02:15:35.392Z,10.97
2022-09-23T02:18:13.431Z,11.34
2022-09-23T02:20:42.043Z,11.55
2022-09-23T02:23:14.009Z,11.75
2022-09-23T02:25:49.132Z,11.68
2022-09-23T02:28:22.817Z,11.63
2022-09-23T02:30:56.743Z,11.48
2022-09-23T02:33:34.485Z,11.77
2022-09-23T02:36:10.282Z,11.00
2022-09-23T02:38:42.547Z,11.48
2022-09-23T02:41:15.138Z,11.69
2022-09-23T02:43:50.898Z,11.69
2022-09-23T02:46:19.903Z,11.69
2022-09-23T02:48:55.183Z,11.90
2022-09-23T02:51:25.920Z,11.85
2022-09-23T02:53:57.084Z,11.45
2022-09-23T02:56:26.117Z,11.28
2022-09-23T02:58:56.083Z,11.22
2022-09-23T03:01:35.606Z,11.37
2022-09-23T03:04:15.942Z,11.33
2022-09-23T03:06:53.537Z,11.60
2022-09-23T03:09:27.076Z,11.82
2022-09-23T03:12:06.849Z,11.80
2022-09-23T03:14:44.609Z,11.68
2022-09-23T03:17:20.552Z,11.67
2022-09-23T03:19:56.975Z,11.44
2022-09-23T03:22:31.377Z,11.69
2022-09-23T03:25:06.120Z,11.56
2022-09-23T03:27:37.269Z,11.59
2022-09-23T03:30:08.316Z,11.52
2022-09-23T03:32:39.527Z,11.22
2022-09-23T03:35:10.199Z,11.42
2022-09-23T03:37:43.380Z,11.69
2022-09-23T03:40:19.505Z,11.57
2022-09-23T03:42:48.952Z,11.34
2022-09-23T03:45:21.209Z,11.35
2022-09-23T03:47:49.471Z,11.65
2022-09-23T03:50:20.977Z,11.68
2022-09-23T03:52:50.695Z,11.38
2022-09-23T03:55:19.902Z,11.21
2022-09-23T03:57:48.741Z,10.93
2022-09-23T04:00:17.447Z,10.18
2022-09-23T04:02:45.887Z,9.70
2022-09-23T04:05:15.220Z,9.83
2022-09-23T04:07:44.983Z,9.81
2022-09-23T04:10:13.295Z,9.79
2022-09-23T04:12:41.509Z,9.68
2022-09-23T04:15:10.502Z,9.45
2022-09-23T04:17:38.793Z,9.35
2022-09-23T04:20:08.242Z,9.57
2022-09-23T04:22:38.759Z,9.83
2022-09-23T04:25:09.761Z,9.62
2022-09-23T04:27:38.178Z,9.77
2022-09-23T04:30:07.194Z,9.99
2022-09-23T04:32:35.552Z,10.17
2022-09-23T04:35:03.782Z,10.23
2022-09-23T04:37:32.073Z,10.07
2022-09-23T04:40:00.583Z,9.59
2022-09-23T04:42:31.342Z,9.99
2022-09-23T04:44:59.530Z,10.10
2022-09-23T04:47:28.369Z,9.97
2022-09-23T04:49:59.740Z,10.14
2022-09-23T04:52:28.702Z,10.71
2022-09-23T04:54:56.964Z,10.91
2022-09-23T04:57:25.628Z,10.92
2022-09-23T04:59:57.083Z,10.78
2022-09-23T05:02:25.598Z,10.65
2022-09-23T05:04:53.944Z,10.48
2022-09-23T05:07:22.467Z,10.63
2022-09-23T05:09:50.714Z,10.81
2022-09-23T05:12:18.992Z,11.03
2022-09-23T05:14:47.299Z,11.04
2022-09-23T05:17:17.138Z,11.24
2022-09-23T05:19:45.428Z,11.70
2022-09-23T05:22:13.639Z,11.25
2022-09-23T05:24:42.063Z,11.66
2022-09-23T05:27:10.317Z,11.85
2022-09-23T05:29:38.737Z,12.20
2022-09-23T05:32:07.086Z,12.29
2022-09-23T05:34:36.773Z,12.69
2022-09-23T05:37:05.467Z,12.83
2022-09-23T05:39:33.769Z,12.33
2022-09-23T05:42:01.996Z,10.96
2022-09-23T05:44:30.287Z,10.30
2022-09-23T05:46:58.815Z,10.57
2022-09-23T05:49:42.887Z,10.37
2022-09-23T05:52:17.352Z,10.23
2022-09-23T05:54:45.655Z,10.89
2022-09-23T05:57:13.914Z,11.58
2022-09-23T05:59:42.523Z,11.62
2022-09-23T06:02:10.779Z,13.06
2022-09-23T06:04:39.222Z,12.98
2022-09-23T06:07:07.423Z,13.16
2022-09-23T06:09:37.065Z,13.20
2022-09-23T06:12:06.468Z,12.53
2022-09-23T06:14:35.067Z,13.40
2022-09-23T06:17:03.299Z,14.79
2022-09-23T06:19:31.528Z,14.84
2022-09-23T06:21:59.792Z,14.40
2022-09-23T06:24:31.348Z,14.28
2022-09-23T06:27:01.477Z,15.25
2022-09-23T06:29:30.973Z,15.79
2022-09-23T06:31:59.778Z,15.05
2022-09-23T06:34:28.110Z,15.07
2022-09-23T06:36:56.567Z,15.91
2022-09-23T06:39:24.835Z,17.08
2022-09-23T06:41:53.026Z,16.96
2022-09-23T06:44:22.693Z,16.92
2022-09-23T06:46:52.189Z,17.02
2022-09-23T06:49:22.857Z,17.21
2022-09-23T06:51:51.152Z,17.90
2022-09-23T06:54:20.410Z,17.76
2022-09-23T06:56:48.655Z,18.15
2022-09-23T06:59:18.451Z,17.73
2022-09-23T07:01:48.533Z,18.34
2022-09-23T07:04:17.006Z,18.30
2022-09-23T07:06:45.336Z,19.02
2022-09-23T07:09:13.585Z,18.65
2022-09-23T07:11:41.861Z,18.38
2022-09-23T07:14:10.139Z,19.75
2022-09-23T07:16:38.449Z,20.22
2022-09-23T07:19:08.093Z,20.32
2022-09-23T07:21:36.917Z,20.33
2022-09-23T07:24:05.529Z,20.80
2022-09-23T07:26:34.308Z,19.34
2022-09-23T07:29:04.962Z,21.02
2022-09-23T07:31:39.367Z,20.38
2022-09-23T07:34:11.844Z,20.20
2022-09-23T07:36:41.779Z,21.27
2022-09-23T07:39:12.577Z,20.41
2022-09-23T07:41:41.856Z,20.07
2022-09-23T07:44:11.896Z,20.95
2022-09-23T07:46:40.342Z,21.28
2022-09-23T07:49:10.876Z,21.01
2022-09-23T07:51:40.788Z,20.83
2022-09-23T07:54:12.305Z,20.79
2022-09-23T07:56:40.948Z,22.03
2022-09-23T07:59:12.282Z,21.76
2022-09-23T08:01:42.895Z,22.34
2022-09-23T08:04:17.248Z,22.83
2022-09-23T08:06:47.236Z,22.30
2022-09-23T08:09:16.573Z,22.55
2022-09-23T08:11:44.821Z,23.29
2022-09-23T08:14:14.769Z,23.48
2022-09-23T08:16:44.885Z,24.78
2022-09-23T08:19:15.339Z,24.35
2022-09-23T08:21:44.186Z,23.47
2022-09-23T08:24:15.539Z,22.03
2022-09-23T08:26:44.051Z,23.54
2022-09-23T08:29:14.039Z,24.15
2022-09-23T08:31:42.458Z,23.96
2022-09-23T08:34:11.193Z,24.87
2022-09-23T08:36:41.080Z,24.39
2022-09-23T08:39:09.472Z,24.23
2022-09-23T08:41:44.813Z,23.74
2022-09-23T08:44:17.877Z,25.03
2022-09-23T08:46:51.012Z,26.27
2022-09-23T08:49:29.067Z,24.91
2022-09-23T08:52:06.889Z,25.43
2022-09-23T08:54:35.191Z,26.10
2022-09-23T08:57:06.371Z,26.03
2022-09-23T08:59:42.884Z,27.30
2022-09-23T09:02:17.024Z,27.91
2022-09-23T09:04:47.138Z,26.89
2022-09-23T09:07:36.089Z,26.83
2022-09-23T09:10:11.041Z,26.89
2022-09-23T09:12:43.592Z,28.72
2022-09-23T09:15:15.563Z,28.18
2022-09-23T09:17:53.880Z,28.27
2022-09-23T09:20:24.830Z,25.29
2022-09-23T09:22:59.980Z,26.41
2022-09-23T09:25:44.325Z,27.00
2022-09-23T09:28:20.503Z,25.13
2022-09-23T09:30:54.524Z,24.30
2022-09-23T09:33:30.588Z,24.23
2022-09-23T09:36:11.440Z,23.75
2022-09-23T09:38:41.069Z,24.25
2022-09-23T09:41:17.181Z,22.26
2022-09-23T09:43:57.800Z,22.30
2022-09-23T09:46:41.761Z,23.02
2022-09-23T09:49:16.980Z,24.79
2022-09-23T09:51:45.274Z,26.04
2022-09-23T09:54:27.465Z,26.48
2022-09-23T09:56:56.559Z,27.83
2022-09-23T09:59:29.381Z,26.19
2022-09-23T10:02:15.431Z,28.13
2022-09-23T10:04:44.111Z,27.05
2022-09-23T10:07:15.652Z,26.35
2022-09-23T10:09:52.088Z,26.27
2022-09-23T10:12:21.812Z,26.54
2022-09-23T10:14:51.923Z,26.55
2022-09-23T10:17:23.064Z,26.23
2022-09-23T10:20:00.407Z,27.37
2022-09-23T10:22:33.389Z,26.63
2022-09-23T10:25:08.533Z,27.73
2022-09-23T10:27:38.971Z,27.70
2022-09-23T10:30:22.456Z,27.27
2022-09-23T10:32:52.159Z,27.05
2022-09-23T10:35:22.677Z,26.65
2022-09-23T10:37:52.940Z,27.42
2022-09-23T10:40:46.348Z,26.67
2022-09-23T10:43:41.109Z,27.41
2022-09-23T10:46:33.604Z,27.36
2022-09-23T10:49:28.588Z,27.08
2022-09-23T10:52:08.736Z,27.41
2022-09-23T10:54:46.623Z,26.90
2022-09-23T10:57:41.837Z,27.68
2022-09-23T11:00:22.351Z,27.51
2022-09-23T11:03:25.879Z,26.14
2022-09-23T11:06:06.632Z,27.00
2022-09-23T11:08:51.555Z,26.52
2022-09-23T11:11:30.223Z,24.84
2022-09-23T11:14:24.307Z,25.81
2022-09-23T11:17:14.828Z,25.91
2022-09-23T11:20:05.861Z,25.97
2022-09-23T11:22:49.961Z,26.55
2022-09-23T11:25:36.341Z,26.50
2022-09-23T11:28:31.911Z,25.81
2022-09-23T11:31:14.751Z,25.57
2022-09-23T11:33:54.399Z,26.86
2022-09-23T11:36:29.164Z,25.60
2022-09-23T11:39:02.678Z,25.80
2022-09-23T11:41:34.146Z,25.78
2022-09-23T11:44:07.290Z,25.16
2022-09-23T11:46:42.052Z,26.63
2022-09-23T11:49:17.157Z,26.58
2022-09-23T11:52:02.335Z,26.63
2022-09-23T11:54:38.788Z,25.87
2022-09-23T11:57:13.173Z,25.87
2022-09-23T11:59:46.508Z,25.88
2022-09-23T12:02:30.581Z,26.75
2022-09-23T12:05:05.174Z,27.03
2022-09-23T12:07:47.402Z,27.74
2022-09-23T12:10:16.764Z,28.64
2022-09-23T12:12:54.254Z,27.38
2022-09-23T12:15:37.397Z,26.95
2022-09-23T12:18:42.261Z,27.17
2022-09-23T12:21:53.327Z,28.66
2022-09-23T12:24:46.817Z,28.60
2022-09-23T12:27:25.249Z,26.99
2022-09-23T12:29:58.050Z,27.05
2022-09-23T12:32:26.850Z,27.20
2022-09-23T12:34:57.185Z,26.29
2022-09-23T12:37:31.190Z,25.71
2022-09-23T12:40:09.485Z,27.13
2022-09-23T12:42:46.176Z,27.09
2022-09-23T12:45:39.075Z,26.70
2022-09-23T12:48:45.068Z,26.25
2022-09-23T12:51:20.665Z,26.05
2022-09-23T12:54:22.946Z,24.91
2022-09-23T12:57:11.281Z,25.27
2022-09-23T12:59:57.845Z,24.91
2022-09-23T13:02:34.899Z,25.02
2022-09-23T13:05:37.532Z,24.70
2022-09-23T13:08:11.076Z,24.56
2022-09-23T13:10:48.445Z,24.85
2022-09-23T13:13:24.328Z,24.65
2022-09-23T13:15:54.202Z,24.46
2022-09-23T13:18:57.976Z,23.73
2022-09-23T13:22:01.928Z,23.82
2022-09-23T13:24:47.642Z,22.87
2022-09-23T13:27:26.751Z,23.25
2022-09-23T13:30:00.405Z,24.46
2022-09-23T13:32:32.965Z,23.79
2022-09-23T13:35:04.341Z,23.77
2022-09-23T13:37:43.909Z,24.11
2022-09-23T13:40:19.977Z,24.12
2022-09-23T13:42:53.773Z,24.33
2022-09-23T13:45:25.036Z,24.34
2022-09-23T13:47:56.113Z,24.29
2022-09-23T13:50:25.880Z,24.54
2022-09-23T13:52:56.723Z,24.72
2022-09-23T13:55:29.428Z,23.85
2022-09-23T13:58:03.490Z,23.53
2022-09-23T14:00:37.833Z,23.23
2022-09-23T14:03:18.825Z,23.68
2022-09-23T14:05:47.753Z,24.65
2022-09-23T14:08:16.353Z,23.84
2022-09-23T14:10:48.075Z,24.29
2022-09-23T14:13:22.382Z,24.77
2022-09-23T14:15:56.150Z,23.85
2022-09-23T14:18:33.543Z,23.23
2022-09-23T14:21:01.857Z,22.94
2022-09-23T14:23:30.130Z,22.68
2022-09-23T14:26:00.976Z,23.51
2022-09-23T14:28:29.695Z,24.40
2022-09-23T14:30:58.797Z,23.47
2022-09-23T14:33:29.617Z,22.69
2022-09-23T14:36:04.588Z,23.62
2022-09-23T14:38:50.277Z,23.78
2022-09-23T14:41:24.653Z,23.47
2022-09-23T14:43:57.283Z,22.65
2022-09-23T14:46:27.332Z,22.87
2022-09-23T14:49:05.896Z,23.65
2022-09-23T14:51:38.759Z,22.39
2022-09-23T14:54:45.034Z,22.92
2022-09-23T14:57:27.886Z,23.32
2022-09-23T14:59:59.834Z,22.71
2022-09-23T15:02:36.585Z,22.83
2022-09-23T15:05:16.877Z,22.85
2022-09-23T15:07:49.331Z,22.62
2022-09-23T15:10:23.729Z,23.00
2022-09-23T15:12:55.247Z,23.11
2022-09-23T15:15:29.205Z,23.18
2022-09-23T15:18:03.981Z,23.38
2022-09-23T15:20:33.009Z,22.89
2022-09-23T15:23:01.837Z,21.87
2022-09-23T15:25:34.162Z,22.28
2022-09-23T15:28:19.447Z,22.15
2022-09-23T15:30:47.694Z,21.72
2022-09-23T15:33:16.543Z,21.65
2022-09-23T15:35:47.925Z,21.64
2022-09-23T15:38:17.659Z,21.32
2022-09-23T15:40:46.011Z,20.57
2022-09-23T15:43:21.025Z,20.88
2022-09-23T15:45:52.936Z,20.81
2022-09-23T15:48:23.410Z,20.67
2022-09-23T15:50:52.226Z,20.43
2022-09-23T15:53:24.048Z,20.53
2022-09-23T15:55:52.428Z,20.36
2022-09-23T15:58:23.677Z,20.51
2022-09-23T16:00:56.397Z,20.33
2022-09-23T16:03:28.701Z,20.64
2022-09-23T16:06:02.533Z,20.40
2022-09-23T16:08:33.163Z,19.46
2022-09-23T16:11:01.697Z,20.08
2022-09-23T16:13:31.305Z,19.74
2022-09-23T16:15:59.523Z,19.63
2022-09-23T16:18:27.733Z,19.34
2022-09-23T16:20:56.009Z,19.22
2022-09-23T16:23:34.675Z,19.46
2022-09-23T16:26:09.019Z,19.73
2022-09-23T16:28:38.726Z,19.73
2022-09-23T16:31:07.242Z,19.51
2022-09-23T16:33:35.466Z,19.34
2022-09-23T16:36:04.274Z,19.35
2022-09-23T16:38:33.008Z,19.38
2022-09-23T16:41:01.554Z,18.93
2022-09-23T16:43:39.592Z,18.77
2022-09-23T16:46:10.309Z,18.74
2022-09-23T16:48:40.739Z,19.18
2022-09-23T16:51:09.645Z,19.19
2022-09-23T16:53:39.401Z,18.98
2022-09-23T16:56:09.764Z,18.52
2022-09-23T16:58:38.170Z,19.33
2022-09-23T17:01:25.180Z,18.71
2022-09-23T17:03:54.934Z,18.98
2022-09-23T17:06:25.221Z,18.98
2022-09-23T17:08:53.382Z,19.17
2022-09-23T17:11:22.483Z,19.20
2022-09-23T17:13:51.921Z,19.17
2022-09-23T17:16:25.512Z,19.21
2022-09-23T17:18:56.687Z,19.00
2022-09-23T17:21:26.833Z,18.90
2022-09-23T17:23:55.228Z,18.39
2022-09-23T17:26:24.716Z,18.04
2022-09-23T17:28:54.422Z,17.63
2022-09-23T17:31:23.539Z,16.46
2022-09-23T17:33:52.362Z,15.50
2022-09-23T17:36:22.744Z,16.80
2022-09-23T17:38:53.715Z,16.82
2022-09-23T17:41:23.222Z,16.52
2022-09-23T17:43:56.849Z,16.09
2022-09-23T17:46:25.356Z,16.55
2022-09-23T17:48:55.822Z,16.21
2022-09-23T17:51:26.205Z,15.86
2022-09-23T17:53:54.451Z,15.54
2022-09-23T17:56:25.066Z,15.45
2022-09-23T17:58:54.687Z,15.94
2022-09-23T18:01:25.619Z,15.95
2022-09-23T18:03:55.769Z,15.67
2022-09-23T18:06:27.404Z,15.57
2022-09-23T18:08:56.475Z,16.00
2022-09-23T18:11:26.473Z,16.54
2022-09-23T18:13:56.660Z,16.03
2022-09-23T18:16:27.527Z,15.23
2022-09-23T18:18:57.421Z,14.82
2022-09-23T18:21:28.935Z,14.89
2022-09-23T18:24:21.394Z,13.72
2022-09-23T18:26:47.034Z,14.57
2022-09-23T18:29:16.004Z,14.47
2022-09-23T18:31:45.173Z,14.41
2022-09-23T18:34:16.323Z,13.47
2022-09-23T18:36:46.293Z,14.23
2022-09-23T18:39:14.504Z,13.96
2022-09-23T18:41:43.063Z,13.86
2022-09-23T18:44:11.353Z,13.28
2022-09-23T18:46:39.748Z,13.80
2022-09-23T18:49:25.762Z,14.46
2022-09-23T18:51:57.172Z,14.28
2022-09-23T18:54:26.463Z,14.30
2022-09-23T18:56:54.884Z,14.62
2022-09-23T18:59:26.363Z,14.37
2022-09-23T19:01:55.682Z,14.61
2022-09-23T19:04:25.470Z,14.35
2022-09-23T19:06:56.821Z,14.54
2022-09-23T19:09:25.537Z,14.42
2022-09-23T19:11:54.076Z,15.28
2022-09-23T19:14:22.750Z,15.35
2022-09-23T19:16:51.068Z,14.98
2022-09-23T19:19:19.535Z,15.02
2022-09-23T19:21:47.870Z,15.03
2022-09-23T19:24:20.168Z,15.17
2022-09-23T19:26:48.681Z,14.91
2022-09-23T19:29:19.623Z,14.91
2022-09-23T19:31:48.112Z,13.71
2022-09-23T19:34:18.195Z,14.69
2022-09-23T19:36:48.574Z,14.71
2022-09-23T19:39:20.011Z,14.57
2022-09-23T19:41:48.948Z,14.40
2022-09-23T19:44:17.781Z,14.32
2022-09-23T19:46:53.658Z,14.27
2022-09-23T19:49:24.664Z,14.06
2022-09-23T19:51:56.067Z,13.66
2022-09-23T19:54:27.684Z,13.88
2022-09-23T19:56:56.459Z,14.23
2022-09-23T19:59:26.549Z,14.22
2022-09-23T20:01:55.121Z,14.10
2022-09-23T20:04:23.615Z,14.07
2022-09-23T20:06:52.052Z,13.43
2022-09-23T20:09:20.718Z,12.55
2022-09-23T20:11:51.129Z,12.87
2022-09-23T20:14:19.875Z,12.51
2022-09-23T20:16:48.443Z,12.86
2022-09-23T20:19:16.776Z,13.30
2022-09-23T20:21:45.044Z,13.52
2022-09-23T20:24:13.424Z,13.68
2022-09-23T20:26:58.791Z,13.77
2022-09-23T20:29:28.449Z,13.75
2022-09-23T20:31:58.693Z,13.93
2022-09-23T20:34:27.453Z,14.05
2022-09-23T20:36:55.765Z,14.15
2022-09-23T20:39:23.995Z,13.93
2022-09-23T20:41:53.129Z,14.08
2022-09-23T20:44:21.458Z,14.23
2022-09-23T20:46:51.463Z,14.11
2022-09-23T20:49:20.952Z,14.15
2022-09-23T20:51:50.024Z,13.83
2022-09-23T20:54:19.539Z,13.94
2022-09-23T20:56:47.861Z,14.10
2022-09-23T20:59:18.017Z,13.47
2022-09-23T21:01:47.823Z,13.27
2022-09-23T21:04:17.965Z,13.51
2022-09-23T21:06:46.279Z,13.68
2022-09-23T21:09:14.512Z,13.65
2022-09-23T21:11:42.743Z,13.83
2022-09-23T21:14:11.135Z,13.93
2022-09-23T21:16:39.709Z,13.98
2022-09-23T21:19:08.720Z,13.87
2022-09-23T21:21:39.324Z,13.74
2022-09-23T21:24:37.810Z,13.91
2022-09-23T21:26:56.209Z,13.80
2022-09-23T21:29:24.480Z,13.77
2022-09-23T21:31:52.818Z,13.91
2022-09-23T21:34:21.186Z,13.96
2022-09-23T21:36:50.842Z,13.61
2022-09-23T21:39:19.633Z,13.20
2022-09-23T21:41:47.977Z,12.94
2022-09-23T21:44:16.306Z,13.35
2022-09-23T21:46:44.831Z,12.98
2022-09-23T21:49:13.366Z,13.32
2022-09-23T21:51:42.466Z,13.51
2022-09-23T21:54:16.175Z,13.22
2022-09-23T21:56:45.396Z,13.25
2022-09-23T21:59:13.816Z,13.13
2022-09-23T22:01:45.175Z,13.28
2022-09-23T22:04:17.249Z,13.34
2022-09-23T22:06:46.506Z,13.11
2022-09-23T22:09:21.655Z,13.35
2022-09-23T22:12:11.324Z,13.13
2022-09-23T22:14:40.255Z,13.62
2022-09-23T22:17:10.969Z,13.44
2022-09-23T22:19:45.974Z,13.23
2022-09-23T22:22:17.836Z,13.10
2022-09-23T22:24:48.760Z,12.62
2022-09-23T22:27:18.934Z,12.92
2022-09-23T22:30:04.310Z,13.04
2022-09-23T22:32:52.832Z,13.13
2022-09-23T22:35:22.815Z,13.01
2022-09-23T22:37:51.104Z,12.52
2022-09-23T22:40:20.933Z,12.29
2022-09-23T22:42:49.836Z,12.25
2022-09-23T22:45:18.352Z,12.31
2022-09-23T22:47:46.627Z,12.28
2022-09-23T22:50:15.412Z,12.56
2022-09-23T22:52:44.173Z,12.50
2022-09-23T22:55:12.930Z,12.20
2022-09-23T22:57:42.677Z,11.52
2022-09-23T23:00:12.652Z,11.84
2022-09-23T23:02:42.566Z,12.09
2022-09-23T23:05:11.206Z,11.92
2022-09-23T23:07:39.469Z,12.05
2022-09-23T23:10:10.295Z,12.45
2022-09-23T23:12:40.286Z,12.26
2022-09-23T23:15:12.803Z,12.43
2022-09-23T23:17:43.739Z,12.63
2022-09-23T23:20:12.083Z,12.51
2022-09-23T23:22:40.395Z,12.61
2022-09-23T23:25:09.880Z,12.72
2022-09-23T23:27:38.221Z,12.31
2022-09-23T23:30:08.439Z,12.29
2022-09-23T23:32:38.367Z,12.51
2022-09-23T23:35:07.453Z,12.66
2022-09-23T23:37:35.795Z,12.74
2022-09-23T23:40:04.233Z,12.73
2022-09-23T23:42:32.781Z,12.60
2022-09-23T23:45:01.099Z,12.37
2022-09-23T23:47:29.366Z,12.19
2022-09-23T23:49:59.432Z,12.06
2022-09-23T23:52:27.778Z,11.85
2022-09-23T23:54:56.348Z,11.88
2022-09-23T23:57:24.583Z,11.87
2022-09-23T23:59:52.800Z,11.16
